Mb-1210 — UEQC — position and weather

sailwx.info

Track history (hours):
 
Tides and Currents Weather Stations Pressure Air Temp Water Temp Dewpoint Dewpoint Depression Visibility Wind Speed Wind Dir Waves Ship Positions

Mb-1210

Last reported at 2015-Oct-20 11:15 UTC. Time now 2016-May-01 08:01 UTC.
Position N 59°48' E 030°38'.
Warning: this ship's position is months out of date.

Length 50 m; draft 2.4 m.

Type: Towing. MMSI: 273421120.

Date/timePositionNaut miles runAvg speedWind from/ knotsBaromVisibWave heightAir tempDewpointWater temp
2015-Oct-20 11:15N 59°48' E 030°38'4 4.9
2015-Oct-20 10:31N 59°50' E 030°33'3 3.1
2015-Oct-20 09:30N 59°52' E 030°29'0 0.0
2015-Oct-20 07:26N 59°52' E 030°29'0 0.0
2015-Oct-20 05:26N 59°52' E 030°29'0 0.0
2015-Oct-20 04:16N 59°52' E 030°29'0 0.0
2015-Oct-20 03:27N 59°52' E 030°29'0 0.0
2015-Oct-20 02:27N 59°52' E 030°29'0 0.0
2015-Oct-20 01:32N 59°52' E 030°29'0 0.0
2015-Oct-20 00:33N 59°52' E 030°29'2 1.6
2015-Oct-19 23:33N 59°51' E 030°30'0 0.0
2015-Oct-19 22:31N 59°51' E 030°30'0 0.0
2015-Oct-19 21:24N 59°51' E 030°30'0 0.0
2015-Oct-19 20:32N 59°51' E 030°30'0 0.0
2015-Oct-19 19:33N 59°51' E 030°30'0 0.0
2015-Oct-19 18:27N 59°51' E 030°30'0 0.0
2015-Oct-19 16:03N 59°51' E 030°30'0 0.0
2015-Oct-19 13:22N 59°51' E 030°30'  
Track history (hours):
 
Tides and Currents Weather Stations Pressure Air Temp Water Temp Dewpoint Dewpoint Depression Visibility Wind Speed Wind Dir Waves Ship Positions

Mb-1210

Last reported at 2015-Oct-20 11:15 UTC. Time now 2016-May-01 08:01 UTC.
Position N 59°48' E 030°38'.
Warning: this ship's position is months out of date.

Length 50 m; draft 2.4 m.

Type: Towing. MMSI: 273421120.

Date/timePositionNaut miles runAvg speedWind from/ knotsBaromVisibWave heightAir tempDewpointWater temp
2015-Oct-20 11:15N 59°48' E 030°38'4 4.9
2015-Oct-20 10:31N 59°50' E 030°33'3 3.1
2015-Oct-20 09:30N 59°52' E 030°29'0 0.0
2015-Oct-20 07:26N 59°52' E 030°29'0 0.0
2015-Oct-20 05:26N 59°52' E 030°29'0 0.0
2015-Oct-20 04:16N 59°52' E 030°29'0 0.0
2015-Oct-20 03:27N 59°52' E 030°29'0 0.0
2015-Oct-20 02:27N 59°52' E 030°29'0 0.0
2015-Oct-20 01:32N 59°52' E 030°29'0 0.0
2015-Oct-20 00:33N 59°52' E 030°29'2 1.6
2015-Oct-19 23:33N 59°51' E 030°30'0 0.0
2015-Oct-19 22:31N 59°51' E 030°30'0 0.0
2015-Oct-19 21:24N 59°51' E 030°30'0 0.0
2015-Oct-19 20:32N 59°51' E 030°30'0 0.0
2015-Oct-19 19:33N 59°51' E 030°30'0 0.0
2015-Oct-19 18:27N 59°51' E 030°30'0 0.0
2015-Oct-19 16:03N 59°51' E 030°30'0 0.0
2015-Oct-19 13:22N 59°51' E 030°30'  

Dump ship's entire track history